sensor_id;sensor_type;location;lat;lon;timestamp;P1;durP1;ratioP1;P2;durP2;ratioP2
22929;SDS011;11630;42.660;23.292;2022-10-31T00:01:54;7.00;;;3.93;;
22929;SDS011;11630;42.660;23.292;2022-10-31T00:04:25;6.50;;;3.67;;
22929;SDS011;11630;42.660;23.292;2022-10-31T00:06:56;6.03;;;3.17;;
22929;SDS011;11630;42.660;23.292;2022-10-31T00:09:27;7.53;;;4.37;;
22929;SDS011;11630;42.660;23.292;2022-10-31T00:11:58;7.57;;;3.57;;
22929;SDS011;11630;42.660;23.292;2022-10-31T00:14:29;5.07;;;4.00;;
22929;SDS011;11630;42.660;23.292;2022-10-31T00:17:00;8.50;;;4.00;;
22929;SDS011;11630;42.660;23.292;2022-10-31T00:19:31;7.20;;;3.30;;
22929;SDS011;11630;42.660;23.292;2022-10-31T00:22:03;6.07;;;3.20;;
22929;SDS011;11630;42.660;23.292;2022-10-31T00:24:34;6.20;;;3.60;;
22929;SDS011;11630;42.660;23.292;2022-10-31T00:27:04;4.50;;;3.73;;
22929;SDS011;11630;42.660;23.292;2022-10-31T00:29:35;7.13;;;3.73;;
22929;SDS011;11630;42.660;23.292;2022-10-31T00:32:06;5.87;;;3.57;;
22929;SDS011;11630;42.660;23.292;2022-10-31T00:34:37;8.73;;;3.73;;
22929;SDS011;11630;42.660;23.292;2022-10-31T00:37:08;7.53;;;3.63;;
22929;SDS011;11630;42.660;23.292;2022-10-31T00:39:39;10.33;;;4.23;;
22929;SDS011;11630;42.660;23.292;2022-10-31T00:42:09;5.70;;;3.23;;
22929;SDS011;11630;42.660;23.292;2022-10-31T00:44:42;4.57;;;3.13;;
22929;SDS011;11630;42.660;23.292;2022-10-31T00:47:14;4.87;;;3.27;;
22929;SDS011;11630;42.660;23.292;2022-10-31T00:49:43;8.77;;;3.77;;
22929;SDS011;11630;42.660;23.292;2022-10-31T00:52:14;5.10;;;3.40;;
22929;SDS011;11630;42.660;23.292;2022-10-31T00:54:44;5.70;;;3.60;;
22929;SDS011;11630;42.660;23.292;2022-10-31T00:57:15;6.87;;;3.60;;
22929;SDS011;11630;42.660;23.292;2022-10-31T00:59:46;6.20;;;3.60;;
22929;SDS011;11630;42.660;23.292;2022-10-31T01:02:17;5.20;;;3.17;;
22929;SDS011;11630;42.660;23.292;2022-10-31T01:04:48;8.43;;;3.90;;
22929;SDS011;11630;42.660;23.292;2022-10-31T01:07:19;9.20;;;3.97;;
22929;SDS011;11630;42.660;23.292;2022-10-31T01:09:49;7.53;;;4.00;;
22929;SDS011;11630;42.660;23.292;2022-10-31T01:12:20;7.60;;;3.57;;
22929;SDS011;11630;42.660;23.292;2022-10-31T01:14:51;4.97;;;3.47;;
22929;SDS011;11630;42.660;23.292;2022-10-31T01:17:22;7.60;;;3.83;;
22929;SDS011;11630;42.660;23.292;2022-10-31T01:19:53;12.27;;;3.93;;
22929;SDS011;11630;42.660;23.292;2022-10-31T01:22:24;5.20;;;3.80;;
22929;SDS011;11630;42.660;23.292;2022-10-31T01:24:55;8.67;;;4.47;;
22929;SDS011;11630;42.660;23.292;2022-10-31T01:27:26;9.30;;;3.97;;
22929;SDS011;11630;42.660;23.292;2022-10-31T01:29:56;8.20;;;4.07;;
22929;SDS011;11630;42.660;23.292;2022-10-31T01:32:27;10.10;;;4.80;;
22929;SDS011;11630;42.660;23.292;2022-10-31T01:34:58;6.90;;;4.17;;
22929;SDS011;11630;42.660;23.292;2022-10-31T01:37:30;9.03;;;3.90;;
22929;SDS011;11630;42.660;23.292;2022-10-31T01:40:00;6.53;;;4.03;;
22929;SDS011;11630;42.660;23.292;2022-10-31T01:42:31;7.47;;;4.03;;
22929;SDS011;11630;42.660;23.292;2022-10-31T01:45:03;11.40;;;4.37;;
22929;SDS011;11630;42.660;23.292;2022-10-31T01:47:38;9.87;;;4.87;;
22929;SDS011;11630;42.660;23.292;2022-10-31T01:50:14;7.53;;;4.70;;
22929;SDS011;11630;42.660;23.292;2022-10-31T01:52:47;8.53;;;4.70;;
22929;SDS011;11630;42.660;23.292;2022-10-31T01:55:21;9.03;;;4.00;;
22929;SDS011;11630;42.660;23.292;2022-10-31T01:58:02;9.23;;;4.60;;
22929;SDS011;11630;42.660;23.292;2022-10-31T02:00:34;9.83;;;4.27;;
22929;SDS011;11630;42.660;23.292;2022-10-31T02:03:05;8.70;;;4.37;;
22929;SDS011;11630;42.660;23.292;2022-10-31T02:05:36;11.83;;;4.90;;
22929;SDS011;11630;42.660;23.292;2022-10-31T02:08:09;11.20;;;4.37;;
22929;SDS011;11630;42.660;23.292;2022-10-31T02:10:40;8.07;;;4.60;;
22929;SDS011;11630;42.660;23.292;2022-10-31T02:13:13;9.07;;;4.50;;
22929;SDS011;11630;42.660;23.292;2022-10-31T02:15:45;13.00;;;4.60;;
22929;SDS011;11630;42.660;23.292;2022-10-31T02:18:16;7.67;;;5.20;;
22929;SDS011;11630;42.660;23.292;2022-10-31T02:20:57;11.00;;;4.83;;
22929;SDS011;11630;42.660;23.292;2022-10-31T02:30:02;12.77;;;5.10;;
22929;SDS011;11630;42.660;23.292;2022-10-31T02:37:55;10.73;;;5.60;;
22929;SDS011;11630;42.660;23.292;2022-10-31T02:40:27;9.17;;;5.30;;
22929;SDS011;11630;42.660;23.292;2022-10-31T02:43:08;11.40;;;5.90;;
22929;SDS011;11630;42.660;23.292;2022-10-31T02:45:54;5.87;;;5.07;;
22929;SDS011;11630;42.660;23.292;2022-10-31T02:48:29;9.30;;;5.00;;
22929;SDS011;11630;42.660;23.292;2022-10-31T02:51:01;10.67;;;5.83;;
22929;SDS011;11630;42.660;23.292;2022-10-31T02:53:33;12.63;;;6.53;;
22929;SDS011;11630;42.660;23.292;2022-10-31T02:56:05;6.20;;;4.97;;
22929;SDS011;11630;42.660;23.292;2022-10-31T02:58:37;9.40;;;5.57;;
22929;SDS011;11630;42.660;23.292;2022-10-31T03:01:21;10.50;;;5.30;;
22929;SDS011;11630;42.660;23.292;2022-10-31T03:06:56;13.77;;;5.90;;
22929;SDS011;11630;42.660;23.292;2022-10-31T03:09:27;9.17;;;6.13;;
22929;SDS011;11630;42.660;23.292;2022-10-31T03:14:47;7.43;;;5.27;;
22929;SDS011;11630;42.660;23.292;2022-10-31T03:17:22;8.60;;;5.60;;
22929;SDS011;11630;42.660;23.292;2022-10-31T03:19:54;14.93;;;6.30;;
22929;SDS011;11630;42.660;23.292;2022-10-31T03:22:28;10.13;;;5.33;;
22929;SDS011;11630;42.660;23.292;2022-10-31T03:25:03;8.03;;;5.10;;
22929;SDS011;11630;42.660;23.292;2022-10-31T03:27:36;13.50;;;5.63;;
22929;SDS011;11630;42.660;23.292;2022-10-31T03:30:09;11.40;;;5.50;;
22929;SDS011;11630;42.660;23.292;2022-10-31T03:32:42;19.77;;;5.77;;
22929;SDS011;11630;42.660;23.292;2022-10-31T03:35:15;7.13;;;5.00;;
22929;SDS011;11630;42.660;23.292;2022-10-31T03:37:50;9.87;;;5.93;;
22929;SDS011;11630;42.660;23.292;2022-10-31T03:40:25;14.17;;;6.10;;
22929;SDS011;11630;42.660;23.292;2022-10-31T03:43:01;9.07;;;5.37;;
22929;SDS011;11630;42.660;23.292;2022-10-31T03:45:31;11.73;;;5.90;;
22929;SDS011;11630;42.660;23.292;2022-10-31T03:48:03;7.77;;;4.73;;
22929;SDS011;11630;42.660;23.292;2022-10-31T03:50:45;8.13;;;5.33;;
22929;SDS011;11630;42.660;23.292;2022-10-31T03:53:24;8.43;;;5.40;;
22929;SDS011;11630;42.660;23.292;2022-10-31T03:59:17;11.90;;;6.00;;
22929;SDS011;11630;42.660;23.292;2022-10-31T04:01:51;8.57;;;6.10;;
22929;SDS011;11630;42.660;23.292;2022-10-31T04:04:23;8.53;;;6.17;;
22929;SDS011;11630;42.660;23.292;2022-10-31T04:06:55;10.80;;;6.37;;
22929;SDS011;11630;42.660;23.292;2022-10-31T04:09:29;12.10;;;6.47;;
22929;SDS011;11630;42.660;23.292;2022-10-31T04:12:01;10.97;;;7.23;;
22929;SDS011;11630;42.660;23.292;2022-10-31T04:14:33;12.03;;;5.43;;
22929;SDS011;11630;42.660;23.292;2022-10-31T04:17:07;13.73;;;7.03;;
22929;SDS011;11630;42.660;23.292;2022-10-31T04:19:37;8.60;;;5.73;;
22929;SDS011;11630;42.660;23.292;2022-10-31T04:22:09;12.50;;;6.10;;
22929;SDS011;11630;42.660;23.292;2022-10-31T04:24:40;10.40;;;5.90;;
22929;SDS011;11630;42.660;23.292;2022-10-31T04:27:10;11.63;;;8.20;;
22929;SDS011;11630;42.660;23.292;2022-10-31T04:29:41;10.87;;;6.60;;
22929;SDS011;11630;42.660;23.292;2022-10-31T04:32:10;11.63;;;6.60;;
22929;SDS011;11630;42.660;23.292;2022-10-31T04:34:41;13.77;;;7.33;;
22929;SDS011;11630;42.660;23.292;2022-10-31T04:37:12;11.50;;;7.60;;
22929;SDS011;11630;42.660;23.292;2022-10-31T04:39:43;15.10;;;7.10;;
22929;SDS011;11630;42.660;23.292;2022-10-31T04:42:14;13.93;;;7.70;;
22929;SDS011;11630;42.660;23.292;2022-10-31T04:44:44;9.53;;;6.57;;
22929;SDS011;11630;42.660;23.292;2022-10-31T04:47:15;12.80;;;7.67;;
22929;SDS011;11630;42.660;23.292;2022-10-31T04:49:47;9.73;;;7.07;;
22929;SDS011;11630;42.660;23.292;2022-10-31T04:52:20;13.87;;;7.13;;
22929;SDS011;11630;42.660;23.292;2022-10-31T04:54:51;10.00;;;6.37;;
22929;SDS011;11630;42.660;23.292;2022-10-31T04:57:24;13.20;;;7.83;;
22929;SDS011;11630;42.660;23.292;2022-10-31T04:59:55;12.80;;;7.27;;
22929;SDS011;11630;42.660;23.292;2022-10-31T05:02:26;12.83;;;6.77;;
22929;SDS011;11630;42.660;23.292;2022-10-31T05:04:57;11.50;;;7.10;;
22929;SDS011;11630;42.660;23.292;2022-10-31T05:07:28;11.03;;;7.20;;
22929;SDS011;11630;42.660;23.292;2022-10-31T05:09:59;19.57;;;8.13;;
22929;SDS011;11630;42.660;23.292;2022-10-31T05:12:30;19.97;;;7.50;;
22929;SDS011;11630;42.660;23.292;2022-10-31T05:15:01;17.33;;;7.90;;
22929;SDS011;11630;42.660;23.292;2022-10-31T05:17:33;14.87;;;9.27;;
22929;SDS011;11630;42.660;23.292;2022-10-31T05:20:05;14.50;;;8.83;;
22929;SDS011;11630;42.660;23.292;2022-10-31T05:22:36;9.47;;;7.90;;
22929;SDS011;11630;42.660;23.292;2022-10-31T05:25:07;15.03;;;9.20;;
22929;SDS011;11630;42.660;23.292;2022-10-31T05:27:39;16.60;;;9.07;;
22929;SDS011;11630;42.660;23.292;2022-10-31T05:30:13;18.43;;;8.70;;
22929;SDS011;11630;42.660;23.292;2022-10-31T05:32:49;28.73;;;9.33;;
22929;SDS011;11630;42.660;23.292;2022-10-31T05:35:26;24.87;;;10.37;;
22929;SDS011;11630;42.660;23.292;2022-10-31T05:37:55;16.27;;;9.63;;
22929;SDS011;11630;42.660;23.292;2022-10-31T05:40:26;17.70;;;9.87;;
22929;SDS011;11630;42.660;23.292;2022-10-31T05:42:56;18.70;;;9.90;;
22929;SDS011;11630;42.660;23.292;2022-10-31T05:45:27;42.77;;;15.50;;
22929;SDS011;11630;42.660;23.292;2022-10-31T05:47:58;34.63;;;12.27;;
22929;SDS011;11630;42.660;23.292;2022-10-31T05:50:30;22.07;;;10.00;;
22929;SDS011;11630;42.660;23.292;2022-10-31T05:53:03;26.97;;;10.47;;
22929;SDS011;11630;42.660;23.292;2022-10-31T05:55:34;17.30;;;10.30;;
22929;SDS011;11630;42.660;23.292;2022-10-31T05:58:05;27.50;;;10.17;;
22929;SDS011;11630;42.660;23.292;2022-10-31T06:00:36;25.27;;;11.17;;
22929;SDS011;11630;42.660;23.292;2022-10-31T06:03:07;27.07;;;10.60;;
22929;SDS011;11630;42.660;23.292;2022-10-31T06:05:39;30.70;;;11.37;;
22929;SDS011;11630;42.660;23.292;2022-10-31T06:08:10;23.47;;;12.27;;
22929;SDS011;11630;42.660;23.292;2022-10-31T06:10:42;23.70;;;11.50;;
22929;SDS011;11630;42.660;23.292;2022-10-31T06:13:12;27.37;;;11.53;;
22929;SDS011;11630;42.660;23.292;2022-10-31T06:15:43;21.57;;;11.23;;
22929;SDS011;11630;42.660;23.292;2022-10-31T06:18:14;26.20;;;11.27;;
22929;SDS011;11630;42.660;23.292;2022-10-31T06:20:44;27.40;;;12.07;;
22929;SDS011;11630;42.660;23.292;2022-10-31T06:23:15;28.73;;;11.47;;
22929;SDS011;11630;42.660;23.292;2022-10-31T06:25:50;45.03;;;12.57;;
22929;SDS011;11630;42.660;23.292;2022-10-31T06:28:20;28.47;;;12.53;;
22929;SDS011;11630;42.660;23.292;2022-10-31T06:30:51;47.10;;;14.97;;
22929;SDS011;11630;42.660;23.292;2022-10-31T06:33:24;33.47;;;12.43;;
22929;SDS011;11630;42.660;23.292;2022-10-31T06:35:54;33.30;;;13.30;;
22929;SDS011;11630;42.660;23.292;2022-10-31T06:38:26;33.80;;;13.40;;
22929;SDS011;11630;42.660;23.292;2022-10-31T06:40:56;26.87;;;13.93;;
22929;SDS011;11630;42.660;23.292;2022-10-31T06:43:25;29.67;;;12.73;;
22929;SDS011;11630;42.660;23.292;2022-10-31T06:45:56;23.00;;;12.73;;
22929;SDS011;11630;42.660;23.292;2022-10-31T06:48:28;28.97;;;14.70;;
22929;SDS011;11630;42.660;23.292;2022-10-31T06:51:00;29.83;;;13.27;;
22929;SDS011;11630;42.660;23.292;2022-10-31T06:53:30;23.00;;;12.53;;
22929;SDS011;11630;42.660;23.292;2022-10-31T06:56:01;21.60;;;12.40;;
22929;SDS011;11630;42.660;23.292;2022-10-31T06:58:32;27.00;;;12.97;;
22929;SDS011;11630;42.660;23.292;2022-10-31T07:01:05;22.17;;;13.77;;
22929;SDS011;11630;42.660;23.292;2022-10-31T07:03:35;21.33;;;12.40;;
22929;SDS011;11630;42.660;23.292;2022-10-31T07:06:06;20.40;;;13.23;;
22929;SDS011;11630;42.660;23.292;2022-10-31T07:08:37;21.17;;;14.00;;
22929;SDS011;11630;42.660;23.292;2022-10-31T07:11:08;34.97;;;13.83;;
22929;SDS011;11630;42.660;23.292;2022-10-31T07:13:39;22.67;;;13.87;;
22929;SDS011;11630;42.660;23.292;2022-10-31T07:16:09;20.63;;;13.03;;
22929;SDS011;11630;42.660;23.292;2022-10-31T07:18:40;22.67;;;13.43;;
22929;SDS011;11630;42.660;23.292;2022-10-31T07:21:09;23.87;;;12.80;;
22929;SDS011;11630;42.660;23.292;2022-10-31T07:23:40;16.10;;;12.43;;
22929;SDS011;11630;42.660;23.292;2022-10-31T07:26:13;21.90;;;14.07;;
22929;SDS011;11630;42.660;23.292;2022-10-31T07:28:43;24.70;;;13.50;;
22929;SDS011;11630;42.660;23.292;2022-10-31T07:31:16;21.20;;;14.17;;
22929;SDS011;11630;42.660;23.292;2022-10-31T07:33:47;19.57;;;13.77;;
22929;SDS011;11630;42.660;23.292;2022-10-31T07:36:19;24.93;;;14.27;;
22929;SDS011;11630;42.660;23.292;2022-10-31T07:38:49;24.07;;;13.73;;
22929;SDS011;11630;42.660;23.292;2022-10-31T07:41:21;25.20;;;13.40;;
22929;SDS011;11630;42.660;23.292;2022-10-31T07:43:52;32.90;;;15.10;;
22929;SDS011;11630;42.660;23.292;2022-10-31T07:46:27;18.20;;;13.47;;
22929;SDS011;11630;42.660;23.292;2022-10-31T07:49:00;24.37;;;13.60;;
22929;SDS011;11630;42.660;23.292;2022-10-31T07:51:35;30.70;;;12.73;;
22929;SDS011;11630;42.660;23.292;2022-10-31T07:54:06;18.43;;;12.50;;
22929;SDS011;11630;42.660;23.292;2022-10-31T07:56:37;29.13;;;13.67;;
22929;SDS011;11630;42.660;23.292;2022-10-31T07:59:08;26.87;;;13.63;;
22929;SDS011;11630;42.660;23.292;2022-10-31T08:01:39;22.37;;;14.43;;
22929;SDS011;11630;42.660;23.292;2022-10-31T08:04:10;18.70;;;12.13;;
22929;SDS011;11630;42.660;23.292;2022-10-31T08:06:41;18.33;;;12.13;;
22929;SDS011;11630;42.660;23.292;2022-10-31T08:09:12;28.73;;;14.40;;
22929;SDS011;11630;42.660;23.292;2022-10-31T08:11:43;20.77;;;14.30;;
22929;SDS011;11630;42.660;23.292;2022-10-31T08:14:13;19.70;;;13.20;;
22929;SDS011;11630;42.660;23.292;2022-10-31T08:16:45;21.87;;;12.50;;
22929;SDS011;11630;42.660;23.292;2022-10-31T08:19:16;31.00;;;13.87;;
22929;SDS011;11630;42.660;23.292;2022-10-31T08:21:49;18.00;;;13.33;;
22929;SDS011;11630;42.660;23.292;2022-10-31T08:24:21;26.23;;;14.30;;
22929;SDS011;11630;42.660;23.292;2022-10-31T08:26:54;19.77;;;13.37;;
22929;SDS011;11630;42.660;23.292;2022-10-31T08:29:25;24.20;;;14.53;;
22929;SDS011;11630;42.660;23.292;2022-10-31T08:31:58;19.27;;;13.30;;
22929;SDS011;11630;42.660;23.292;2022-10-31T08:34:29;18.17;;;11.47;;
22929;SDS011;11630;42.660;23.292;2022-10-31T08:37:00;18.20;;;11.50;;
22929;SDS011;11630;42.660;23.292;2022-10-31T08:39:31;17.13;;;11.60;;
22929;SDS011;11630;42.660;23.292;2022-10-31T08:42:04;14.63;;;10.63;;
22929;SDS011;11630;42.660;23.292;2022-10-31T08:44:35;18.13;;;11.67;;
22929;SDS011;11630;42.660;23.292;2022-10-31T08:47:04;22.87;;;11.03;;
22929;SDS011;11630;42.660;23.292;2022-10-31T08:49:37;21.80;;;11.93;;
22929;SDS011;11630;42.660;23.292;2022-10-31T08:52:08;25.13;;;12.17;;
22929;SDS011;11630;42.660;23.292;2022-10-31T08:54:38;11.93;;;9.20;;
22929;SDS011;11630;42.660;23.292;2022-10-31T08:57:09;20.47;;;8.57;;
22929;SDS011;11630;42.660;23.292;2022-10-31T08:59:40;22.23;;;9.63;;
22929;SDS011;11630;42.660;23.292;2022-10-31T09:02:11;17.53;;;9.43;;
22929;SDS011;11630;42.660;23.292;2022-10-31T09:04:41;19.07;;;10.67;;
22929;SDS011;11630;42.660;23.292;2022-10-31T09:07:17;17.23;;;8.30;;
22929;SDS011;11630;42.660;23.292;2022-10-31T09:09:48;14.13;;;8.60;;
22929;SDS011;11630;42.660;23.292;2022-10-31T09:12:21;16.83;;;8.33;;
22929;SDS011;11630;42.660;23.292;2022-10-31T09:14:52;20.87;;;9.10;;
22929;SDS011;11630;42.660;23.292;2022-10-31T09:17:23;11.27;;;7.57;;
22929;SDS011;11630;42.660;23.292;2022-10-31T09:19:54;13.10;;;9.03;;
22929;SDS011;11630;42.660;23.292;2022-10-31T09:22:25;16.37;;;8.80;;
22929;SDS011;11630;42.660;23.292;2022-10-31T09:24:56;12.80;;;8.53;;
22929;SDS011;11630;42.660;23.292;2022-10-31T09:27:27;20.03;;;9.10;;
22929;SDS011;11630;42.660;23.292;2022-10-31T09:29:58;19.80;;;8.97;;
22929;SDS011;11630;42.660;23.292;2022-10-31T09:32:29;23.13;;;8.63;;
22929;SDS011;11630;42.660;23.292;2022-10-31T09:35:00;22.27;;;9.07;;
22929;SDS011;11630;42.660;23.292;2022-10-31T09:37:30;21.23;;;8.97;;
22929;SDS011;11630;42.660;23.292;2022-10-31T09:40:02;15.30;;;8.37;;
22929;SDS011;11630;42.660;23.292;2022-10-31T09:48:13;13.80;;;8.30;;
22929;SDS011;11630;42.660;23.292;2022-10-31T09:50:53;14.77;;;6.87;;
22929;SDS011;11630;42.660;23.292;2022-10-31T09:53:32;15.43;;;8.30;;
22929;SDS011;11630;42.660;23.292;2022-10-31T09:56:07;14.20;;;7.40;;
22929;SDS011;11630;42.660;23.292;2022-10-31T09:58:42;21.23;;;7.63;;
22929;SDS011;11630;42.660;23.292;2022-10-31T10:01:33;20.60;;;8.10;;
22929;SDS011;11630;42.660;23.292;2022-10-31T10:07:12;16.60;;;8.23;;
22929;SDS011;11630;42.660;23.292;2022-10-31T10:09:52;9.73;;;6.47;;
22929;SDS011;11630;42.660;23.292;2022-10-31T10:18:05;13.07;;;6.37;;
22929;SDS011;11630;42.660;23.292;2022-10-31T10:20:51;13.23;;;6.13;;
22929;SDS011;11630;42.660;23.292;2022-10-31T10:26:15;11.83;;;6.07;;
22929;SDS011;11630;42.660;23.292;2022-10-31T10:28:54;11.60;;;5.43;;
22929;SDS011;11630;42.660;23.292;2022-10-31T10:31:25;17.10;;;6.03;;
22929;SDS011;11630;42.660;23.292;2022-10-31T10:36:45;13.90;;;3.87;;
22929;SDS011;11630;42.660;23.292;2022-10-31T10:39:30;10.80;;;4.17;;
22929;SDS011;11630;42.660;23.292;2022-10-31T10:41:57;11.60;;;3.83;;
22929;SDS011;11630;42.660;23.292;2022-10-31T10:44:49;9.60;;;3.80;;
22929;SDS011;11630;42.660;23.292;2022-10-31T10:47:39;13.53;;;4.00;;
22929;SDS011;11630;42.660;23.292;2022-10-31T10:50:10;8.73;;;3.63;;
22929;SDS011;11630;42.660;23.292;2022-10-31T10:52:50;9.47;;;3.37;;
22929;SDS011;11630;42.660;23.292;2022-10-31T10:58:20;17.10;;;3.90;;
22929;SDS011;11630;42.660;23.292;2022-10-31T11:00:50;4.63;;;3.50;;
22929;SDS011;11630;42.660;23.292;2022-10-31T11:03:21;10.80;;;4.10;;
22929;SDS011;11630;42.660;23.292;2022-10-31T11:05:52;6.03;;;2.83;;
22929;SDS011;11630;42.660;23.292;2022-10-31T11:08:25;10.27;;;3.70;;
22929;SDS011;11630;42.660;23.292;2022-10-31T11:11:02;10.57;;;3.57;;
22929;SDS011;11630;42.660;23.292;2022-10-31T11:13:49;13.23;;;3.87;;
22929;SDS011;11630;42.660;23.292;2022-10-31T11:19:06;10.57;;;3.27;;
22929;SDS011;11630;42.660;23.292;2022-10-31T11:21:47;9.40;;;3.20;;
22929;SDS011;11630;42.660;23.292;2022-10-31T11:24:18;4.13;;;2.70;;
22929;SDS011;11630;42.660;23.292;2022-10-31T11:26:49;14.00;;;3.70;;
22929;SDS011;11630;42.660;23.292;2022-10-31T11:29:23;13.17;;;3.63;;
22929;SDS011;11630;42.660;23.292;2022-10-31T11:31:57;9.17;;;3.27;;
22929;SDS011;11630;42.660;23.292;2022-10-31T11:34:30;6.27;;;2.87;;
22929;SDS011;11630;42.660;23.292;2022-10-31T11:37:15;10.33;;;3.63;;
22929;SDS011;11630;42.660;23.292;2022-10-31T11:39:45;7.67;;;3.57;;
22929;SDS011;11630;42.660;23.292;2022-10-31T11:42:22;7.90;;;3.10;;
22929;SDS011;11630;42.660;23.292;2022-10-31T11:44:53;6.13;;;3.73;;
22929;SDS011;11630;42.660;23.292;2022-10-31T11:47:25;8.30;;;4.00;;
22929;SDS011;11630;42.660;23.292;2022-10-31T11:49:54;8.27;;;3.07;;
22929;SDS011;11630;42.660;23.292;2022-10-31T11:52:27;6.20;;;3.77;;
22929;SDS011;11630;42.660;23.292;2022-10-31T11:55:01;6.33;;;3.43;;
22929;SDS011;11630;42.660;23.292;2022-10-31T11:57:33;12.10;;;4.97;;
22929;SDS011;11630;42.660;23.292;2022-10-31T12:00:23;7.77;;;3.50;;
22929;SDS011;11630;42.660;23.292;2022-10-31T12:05:44;12.33;;;4.03;;
22929;SDS011;11630;42.660;23.292;2022-10-31T12:08:16;12.40;;;3.80;;
22929;SDS011;11630;42.660;23.292;2022-10-31T12:16:08;22.17;;;4.03;;
22929;SDS011;11630;42.660;23.292;2022-10-31T12:18:56;9.60;;;3.80;;
22929;SDS011;11630;42.660;23.292;2022-10-31T12:21:34;7.70;;;3.20;;
22929;SDS011;11630;42.660;23.292;2022-10-31T12:24:14;5.07;;;3.00;;
22929;SDS011;11630;42.660;23.292;2022-10-31T12:27:05;14.27;;;3.90;;
22929;SDS011;11630;42.660;23.292;2022-10-31T12:29:57;10.33;;;3.03;;
22929;SDS011;11630;42.660;23.292;2022-10-31T12:35:49;8.67;;;3.33;;
22929;SDS011;11630;42.660;23.292;2022-10-31T12:55:08;9.23;;;3.83;;
22929;SDS011;11630;42.660;23.292;2022-10-31T12:57:36;8.93;;;3.40;;
22929;SDS011;11630;42.660;23.292;2022-10-31T13:00:10;8.83;;;3.77;;
22929;SDS011;11630;42.660;23.292;2022-10-31T13:02:48;11.23;;;4.73;;
22929;SDS011;11630;42.660;23.292;2022-10-31T13:16:25;5.00;;;3.30;;
22929;SDS011;11630;42.660;23.292;2022-10-31T13:21:37;12.87;;;5.03;;
22929;SDS011;11630;42.660;23.292;2022-10-31T13:24:12;7.90;;;4.00;;
22929;SDS011;11630;42.660;23.292;2022-10-31T13:26:44;10.10;;;3.97;;
22929;SDS011;11630;42.660;23.292;2022-10-31T13:29:30;15.30;;;4.33;;
22929;SDS011;11630;42.660;23.292;2022-10-31T13:32:05;13.87;;;4.23;;
22929;SDS011;11630;42.660;23.292;2022-10-31T13:34:41;18.07;;;3.97;;
22929;SDS011;11630;42.660;23.292;2022-10-31T13:37:31;23.63;;;4.70;;
22929;SDS011;11630;42.660;23.292;2022-10-31T13:40:15;13.30;;;3.97;;
22929;SDS011;11630;42.660;23.292;2022-10-31T13:45:30;17.83;;;5.20;;
22929;SDS011;11630;42.660;23.292;2022-10-31T13:48:16;12.57;;;3.90;;
22929;SDS011;11630;42.660;23.292;2022-10-31T13:50:32;5.43;;;3.20;;
22929;SDS011;11630;42.660;23.292;2022-10-31T13:53:10;6.50;;;3.53;;
22929;SDS011;11630;42.660;23.292;2022-10-31T13:55:44;20.23;;;4.10;;
22929;SDS011;11630;42.660;23.292;2022-10-31T13:58:22;24.67;;;5.07;;
22929;SDS011;11630;42.660;23.292;2022-10-31T14:01:10;8.57;;;3.30;;
22929;SDS011;11630;42.660;23.292;2022-10-31T14:03:56;7.43;;;3.53;;
22929;SDS011;11630;42.660;23.292;2022-10-31T14:06:34;7.30;;;3.80;;
22929;SDS011;11630;42.660;23.292;2022-10-31T14:11:52;12.77;;;4.53;;
22929;SDS011;11630;42.660;23.292;2022-10-31T14:14:25;15.20;;;4.13;;
22929;SDS011;11630;42.660;23.292;2022-10-31T14:16:56;32.00;;;4.83;;
22929;SDS011;11630;42.660;23.292;2022-10-31T14:19:27;20.97;;;4.97;;
22929;SDS011;11630;42.660;23.292;2022-10-31T14:21:59;30.47;;;4.60;;
22929;SDS011;11630;42.660;23.292;2022-10-31T14:24:32;10.43;;;3.60;;
22929;SDS011;11630;42.660;23.292;2022-10-31T14:27:50;17.07;;;4.10;;
22929;SDS011;11630;42.660;23.292;2022-10-31T14:29:47;22.50;;;4.80;;
22929;SDS011;11630;42.660;23.292;2022-10-31T14:32:23;23.30;;;5.27;;
22929;SDS011;11630;42.660;23.292;2022-10-31T14:34:56;38.80;;;5.90;;
22929;SDS011;11630;42.660;23.292;2022-10-31T14:37:35;26.37;;;5.40;;
22929;SDS011;11630;42.660;23.292;2022-10-31T14:45:49;43.40;;;6.97;;
22929;SDS011;11630;42.660;23.292;2022-10-31T14:51:23;16.97;;;5.43;;
22929;SDS011;11630;42.660;23.292;2022-10-31T14:53:52;18.07;;;5.13;;
22929;SDS011;11630;42.660;23.292;2022-10-31T14:56:28;10.63;;;4.40;;
22929;SDS011;11630;42.660;23.292;2022-10-31T14:59:03;49.57;;;8.00;;
22929;SDS011;11630;42.660;23.292;2022-10-31T15:01:32;111.07;;;10.53;;
22929;SDS011;11630;42.660;23.292;2022-10-31T15:04:13;61.03;;;9.57;;
22929;SDS011;11630;42.660;23.292;2022-10-31T15:06:45;56.17;;;8.10;;
22929;SDS011;11630;42.660;23.292;2022-10-31T15:09:37;49.63;;;8.20;;
22929;SDS011;11630;42.660;23.292;2022-10-31T15:11:55;81.93;;;8.50;;
22929;SDS011;11630;42.660;23.292;2022-10-31T15:14:30;22.23;;;5.53;;
22929;SDS011;11630;42.660;23.292;2022-10-31T15:17:01;46.03;;;8.07;;
22929;SDS011;11630;42.660;23.292;2022-10-31T15:19:32;58.17;;;8.33;;
22929;SDS011;11630;42.660;23.292;2022-10-31T15:22:04;68.33;;;12.07;;
22929;SDS011;11630;42.660;23.292;2022-10-31T15:24:36;136.87;;;17.27;;
22929;SDS011;11630;42.660;23.292;2022-10-31T15:27:10;157.13;;;17.87;;
22929;SDS011;11630;42.660;23.292;2022-10-31T15:29:51;58.53;;;11.63;;
22929;SDS011;11630;42.660;23.292;2022-10-31T15:32:24;53.07;;;9.77;;
22929;SDS011;11630;42.660;23.292;2022-10-31T15:34:54;66.30;;;11.53;;
22929;SDS011;11630;42.660;23.292;2022-10-31T15:37:25;98.77;;;12.40;;
22929;SDS011;11630;42.660;23.292;2022-10-31T15:39:55;101.80;;;12.83;;
22929;SDS011;11630;42.660;23.292;2022-10-31T15:42:27;72.80;;;12.73;;
22929;SDS011;11630;42.660;23.292;2022-10-31T15:45:04;117.83;;;13.40;;
22929;SDS011;11630;42.660;23.292;2022-10-31T15:47:37;86.13;;;14.60;;
22929;SDS011;11630;42.660;23.292;2022-10-31T15:50:18;41.33;;;8.37;;
22929;SDS011;11630;42.660;23.292;2022-10-31T15:52:47;16.50;;;5.93;;
22929;SDS011;11630;42.660;23.292;2022-10-31T15:55:22;73.90;;;10.73;;
22929;SDS011;11630;42.660;23.292;2022-10-31T15:57:55;58.23;;;11.10;;
22929;SDS011;11630;42.660;23.292;2022-10-31T16:00:28;41.10;;;9.37;;
22929;SDS011;11630;42.660;23.292;2022-10-31T16:03:04;46.53;;;9.53;;
22929;SDS011;11630;42.660;23.292;2022-10-31T16:05:37;26.60;;;7.37;;
22929;SDS011;11630;42.660;23.292;2022-10-31T16:10:59;34.60;;;9.10;;
22929;SDS011;11630;42.660;23.292;2022-10-31T16:13:40;40.60;;;8.73;;
22929;SDS011;11630;42.660;23.292;2022-10-31T16:16:13;33.63;;;7.73;;
22929;SDS011;11630;42.660;23.292;2022-10-31T16:18:43;68.37;;;11.67;;
22929;SDS011;11630;42.660;23.292;2022-10-31T16:21:13;20.70;;;6.57;;
22929;SDS011;11630;42.660;23.292;2022-10-31T16:23:44;16.90;;;4.97;;
22929;SDS011;11630;42.660;23.292;2022-10-31T16:26:17;51.97;;;8.13;;
22929;SDS011;11630;42.660;23.292;2022-10-31T16:28:53;20.50;;;3.63;;
22929;SDS011;11630;42.660;23.292;2022-10-31T16:31:30;59.47;;;10.30;;
22929;SDS011;11630;42.660;23.292;2022-10-31T16:34:05;37.93;;;7.07;;
22929;SDS011;11630;42.660;23.292;2022-10-31T16:36:38;57.07;;;8.30;;
22929;SDS011;11630;42.660;23.292;2022-10-31T16:39:09;23.87;;;6.93;;
22929;SDS011;11630;42.660;23.292;2022-10-31T16:41:41;45.40;;;7.03;;